Time;durP1;ratioP1;P1;durP2;ratioP2;P2;SDS_P1;SDS_P2;PMS_P1;PMS_P2;Temp;Humidity;BMP_temperature;BMP_pressure;BME280_temperature;BME280_humidity;BME280_pressure;Samples;Min_cycle;Max_cycle;Signal;HPM_P1;HPM_P2
2022/10/22 00:01:32;;;;;;;;;;;15.30;99.90;;;;;;8399163;28;20063;-80
2022/10/22 00:05:34;;;;;;;;;;;15.30;99.90;;;;;;8399203;28;19972;-81
2022/10/22 00:09:35;;;;;;;;;;;15.20;99.90;;;;;;8399026;28;19924;-81
2022/10/22 00:18:41;;;;;;;;;;;15.10;99.90;;;;;;8398046;28;19919;-81
2022/10/22 00:27:28;;;;;;;;;;;15.10;99.90;;;;;;8329129;28;20363;-81
2022/10/22 00:31:29;;;;;;;;;;;15.20;99.90;;;;;;8331827;28;19932;-80
2022/10/22 00:35:31;;;;;;;;;;;15.20;99.90;;;;;;8330095;28;20439;-81
2022/10/22 00:39:33;;;;;;;;;;;15.20;99.90;;;;;;8330141;28;19925;-81
2022/10/22 00:43:51;;;;;;;;;;;15.20;99.90;;;;;;8330927;28;20328;-80
2022/10/22 00:47:59;;;;;;;;;;;15.20;99.90;;;;;;8324548;28;19925;-80
2022/10/22 00:52:00;;;;;;;;;;;15.20;99.90;;;;;;8331421;28;19976;-81
2022/10/22 00:56:02;;;;;;;;;;;15.20;99.90;;;;;;8318741;28;19947;-81
2022/10/22 01:00:05;;;;;;;;;;;15.20;99.90;;;;;;8330029;28;20020;-83
2022/10/22 01:04:06;;;;;;;;;;;15.20;99.90;;;;;;8329853;28;20016;-83
2022/10/22 01:08:13;;;;;;;;;;;15.20;99.90;;;;;;8330414;28;20296;-83
2022/10/22 01:12:22;;;;;;;;;;;15.20;99.90;;;;;;8330697;28;20043;-82
2022/10/22 01:16:31;;;;;;;;;;;15.20;99.90;;;;;;8328842;28;20043;-83
2022/10/22 01:20:51;;;;;;;;;;;15.20;99.90;;;;;;8329954;28;20315;-82
2022/10/22 01:30:10;;;;;;;;;;;15.10;99.90;;;;;;8380949;28;19962;-82
2022/10/22 01:34:14;;;;;;;;;;;15.10;99.90;;;;;;8395634;28;20446;-82
2022/10/22 01:43:19;;;;;;;;;;;15.10;99.90;;;;;;8390124;28;19958;-83
2022/10/22 01:47:39;;;;;;;;;;;15.00;99.90;;;;;;8396475;28;19932;-83
2022/10/22 01:52:00;;;;;;;;;;;15.00;99.90;;;;;;8394902;28;19931;-82
2022/10/22 01:56:04;;;;;;;;;;;15.00;99.90;;;;;;8377111;28;20018;-82
2022/10/22 02:00:11;;;;;;;;;;;15.00;99.90;;;;;;8394454;28;20338;-82
2022/10/22 02:04:16;;;;;;;;;;;14.90;99.90;;;;;;8394945;28;19935;-82
2022/10/22 02:08:20;;;;;;;;;;;14.90;99.90;;;;;;8382384;28;20039;-83
2022/10/22 02:12:22;;;;;;;;;;;14.90;99.90;;;;;;8401700;28;19942;-82
2022/10/22 02:16:27;;;;;;;;;;;14.90;99.90;;;;;;8383246;28;20023;-83
2022/10/22 02:20:31;;;;;;;;;;;14.80;99.90;;;;;;8401309;28;19955;-82
2022/10/22 02:24:32;;;;;;;;;;;14.80;99.90;;;;;;8400246;28;20272;-83
2022/10/22 02:28:37;;;;;;;;;;;14.80;99.90;;;;;;8382897;28;20295;-82
2022/10/22 02:32:42;;;;;;;;;;;14.80;99.90;;;;;;8401444;28;20113;-82
2022/10/22 02:36:44;;;;;;;;;;;14.70;99.90;;;;;;8400448;28;19924;-82
2022/10/22 02:40:48;;;;;;;;;;;14.70;99.90;;;;;;8400880;28;19925;-82
2022/10/22 02:44:50;;;;;;;;;;;14.70;99.90;;;;;;8382189;28;20430;-82
2022/10/22 02:48:52;;;;;;;;;;;14.60;99.90;;;;;;8400275;28;20454;-83
2022/10/22 02:52:53;;;;;;;;;;;14.60;99.90;;;;;;8380844;28;20296;-82
2022/10/22 02:56:55;;;;;;;;;;;14.60;99.90;;;;;;8387479;28;19975;-82
2022/10/22 03:00:56;;;;;;;;;;;14.60;99.90;;;;;;8399570;28;19928;-83
2022/10/22 03:04:58;;;;;;;;;;;14.60;99.90;;;;;;8381516;28;20368;-82
2022/10/22 03:09:00;;;;;;;;;;;14.50;99.90;;;;;;8399097;28;20334;-82
2022/10/22 03:13:01;;;;;;;;;;;14.50;99.90;;;;;;8382171;28;19925;-83
2022/10/22 03:17:03;;;;;;;;;;;14.50;99.90;;;;;;8381857;28;19982;-83
2022/10/22 03:21:08;;;;;;;;;;;14.50;99.90;;;;;;8399656;28;19931;-82
2022/10/22 03:25:13;;;;;;;;;;;14.50;99.90;;;;;;8398606;28;19924;-82
2022/10/22 03:29:14;;;;;;;;;;;14.40;99.90;;;;;;8380994;28;20032;-83
2022/10/22 03:33:16;;;;;;;;;;;14.40;99.90;;;;;;8398341;28;19935;-82
2022/10/22 03:37:18;;;;;;;;;;;14.40;99.90;;;;;;8381438;28;19993;-82
2022/10/22 03:41:20;;;;;;;;;;;14.40;99.90;;;;;;8380679;28;20015;-82
2022/10/22 03:45:21;;;;;;;;;;;14.40;99.90;;;;;;8398377;28;19983;-82
2022/10/22 03:49:23;;;;;;;;;;;14.40;99.90;;;;;;8380982;28;19936;-82
2022/10/22 03:53:24;;;;;;;;;;;14.40;99.90;;;;;;8377308;28;19938;-80
2022/10/22 03:57:27;;;;;;;;;;;14.40;99.90;;;;;;8377315;28;20023;-80
2022/10/22 04:01:29;;;;;;;;;;;14.40;99.90;;;;;;8397599;28;20027;-80
2022/10/22 04:05:31;;;;;;;;;;;14.40;99.90;;;;;;8396969;28;19978;-80
2022/10/22 04:09:33;;;;;;;;;;;14.40;99.90;;;;;;8379712;28;19935;-80
2022/10/22 04:13:35;;;;;;;;;;;14.40;99.90;;;;;;8396326;28;20026;-80
2022/10/22 04:17:36;;;;;;;;;;;14.30;99.90;;;;;;8397312;28;19928;-79
2022/10/22 04:21:38;;;;;;;;;;;14.30;99.90;;;;;;8396283;28;19924;-80
2022/10/22 04:25:40;;;;;;;;;;;14.30;99.90;;;;;;8396832;28;20031;-80
2022/10/22 04:29:42;;;;;;;;;;;14.30;99.90;;;;;;8396274;28;20011;-80
2022/10/22 04:33:44;;;;;;;;;;;14.30;99.90;;;;;;8395864;28;20368;-82
2022/10/22 04:37:45;;;;;;;;;;;14.30;99.90;;;;;;8379035;28;20324;-82
2022/10/22 04:41:47;;;;;;;;;;;14.30;99.90;;;;;;8396671;28;20042;-82
2022/10/22 04:45:49;;;;;;;;;;;14.30;99.90;;;;;;8395586;28;19924;-82
2022/10/22 04:49:51;;;;;;;;;;;14.30;99.90;;;;;;8396849;28;19931;-82
2022/10/22 04:53:52;;;;;;;;;;;14.30;99.90;;;;;;8386669;28;20296;-82
2022/10/22 04:57:54;;;;;;;;;;;14.30;99.90;;;;;;8373410;28;20007;-81
2022/10/22 05:12:05;;;;;;;;;;;14.30;99.90;;;;;;8390251;28;19927;-82
2022/10/22 05:16:07;;;;;;;;;;;14.30;99.90;;;;;;8376999;28;19924;-82
2022/10/22 05:20:09;;;;;;;;;;;14.40;99.90;;;;;;8395773;28;20351;-81
2022/10/22 05:24:11;;;;;;;;;;;14.30;99.90;;;;;;8393995;28;19928;-82
2022/10/22 05:28:12;;;;;;;;;;;14.40;99.90;;;;;;8377035;28;19925;-82
2022/10/22 05:32:14;;;;;;;;;;;14.30;99.90;;;;;;8377662;28;19925;-82
2022/10/22 05:36:17;;;;;;;;;;;14.30;99.90;;;;;;8394247;28;19939;-82
2022/10/22 05:40:19;;;;;;;;;;;14.30;99.90;;;;;;8394079;28;20023;-82
2022/10/22 05:44:31;;;;;;;;;;;14.30;99.90;;;;;;8378500;28;19924;-81
2022/10/22 05:48:33;;;;;;;;;;;14.30;99.90;;;;;;8394710;28;20440;-82
2022/10/22 05:52:34;;;;;;;;;;;14.30;99.90;;;;;;8394131;28;19924;-82
2022/10/22 05:56:37;;;;;;;;;;;14.30;99.90;;;;;;8386604;28;20463;-82
2022/10/22 06:00:39;;;;;;;;;;;14.30;99.90;;;;;;8395075;28;19931;-81
2022/10/22 06:04:40;;;;;;;;;;;14.30;99.90;;;;;;8394588;28;19924;-82
2022/10/22 06:08:42;;;;;;;;;;;14.30;99.90;;;;;;8377068;28;20015;-82
2022/10/22 06:12:45;;;;;;;;;;;14.30;99.90;;;;;;8376256;28;20375;-82
2022/10/22 06:16:47;;;;;;;;;;;14.30;99.90;;;;;;8394760;28;20380;-82
2022/10/22 06:20:49;;;;;;;;;;;14.30;99.90;;;;;;8395082;28;19956;-82
2022/10/22 06:24:50;;;;;;;;;;;14.30;99.90;;;;;;8376518;28;19928;-82
2022/10/22 06:28:54;;;;;;;;;;;14.30;99.90;;;;;;8376824;28;20329;-82
2022/10/22 06:32:56;;;;;;;;;;;14.20;99.90;;;;;;8393177;28;20015;-82
2022/10/22 06:36:57;;;;;;;;;;;14.20;99.90;;;;;;8394404;28;20015;-82
2022/10/22 06:41:03;;;;;;;;;;;14.20;99.90;;;;;;8394647;28;20443;-82
2022/10/22 06:45:05;;;;;;;;;;;14.20;99.90;;;;;;8393881;28;20340;-82
2022/10/22 06:49:10;;;;;;;;;;;14.20;99.90;;;;;;8394626;28;19975;-82
2022/10/22 06:53:11;;;;;;;;;;;14.20;99.90;;;;;;8374153;28;19931;-81
2022/10/22 06:57:13;;;;;;;;;;;14.30;99.90;;;;;;8393519;28;20128;-82
2022/10/22 07:01:16;;;;;;;;;;;14.30;99.90;;;;;;8400402;28;19934;-82
2022/10/22 07:05:18;;;;;;;;;;;14.30;99.90;;;;;;8380585;28;20241;-83
2022/10/22 07:09:19;;;;;;;;;;;14.40;99.90;;;;;;8399796;28;19928;-82
2022/10/22 07:13:21;;;;;;;;;;;14.40;99.90;;;;;;8399207;28;19924;-82
2022/10/22 07:17:23;;;;;;;;;;;14.40;99.90;;;;;;8399307;28;19951;-82
2022/10/22 07:21:25;;;;;;;;;;;14.40;99.90;;;;;;8381724;28;19924;-83
2022/10/22 07:25:26;;;;;;;;;;;14.50;99.90;;;;;;8380815;28;19935;-82
2022/10/22 07:29:28;;;;;;;;;;;14.50;99.90;;;;;;8398745;28;20023;-82
2022/10/22 07:33:30;;;;;;;;;;;14.60;99.90;;;;;;8398231;28;20007;-82
2022/10/22 07:37:31;;;;;;;;;;;14.70;99.90;;;;;;8398870;28;20019;-82
2022/10/22 07:41:33;;;;;;;;;;;14.70;99.90;;;;;;8398408;28;20299;-82
2022/10/22 07:45:34;;;;;;;;;;;14.80;99.90;;;;;;8397520;28;20456;-81
2022/10/22 07:49:36;;;;;;;;;;;14.90;99.90;;;;;;8399975;28;20039;-82
2022/10/22 07:53:38;;;;;;;;;;;14.90;99.90;;;;;;8400894;28;19925;-82
2022/10/22 07:57:40;;;;;;;;;;;15.00;99.90;;;;;;8400498;28;20019;-81
2022/10/22 08:01:41;;;;;;;;;;;15.00;99.90;;;;;;8382842;28;19929;-83
2022/10/22 08:05:43;;;;;;;;;;;15.10;99.90;;;;;;8382346;28;20011;-81
2022/10/22 08:09:45;;;;;;;;;;;15.20;99.90;;;;;;8382467;28;19932;-82
2022/10/22 08:13:47;;;;;;;;;;;15.20;99.90;;;;;;8382330;28;20011;-82
2022/10/22 08:17:48;;;;;;;;;;;15.20;99.90;;;;;;8382666;28;19932;-82
2022/10/22 08:21:50;;;;;;;;;;;15.30;99.90;;;;;;8383127;28;19998;-82
2022/10/22 08:25:52;;;;;;;;;;;15.30;99.90;;;;;;8381678;28;19931;-82
2022/10/22 08:29:53;;;;;;;;;;;15.30;99.90;;;;;;8365103;28;20011;-82
2022/10/22 08:33:55;;;;;;;;;;;15.30;99.90;;;;;;8364833;28;20358;-81
2022/10/22 08:37:56;;;;;;;;;;;15.40;99.90;;;;;;8366078;28;19933;-82
2022/10/22 08:41:58;;;;;;;;;;;15.50;99.90;;;;;;8364952;28;19964;-82
2022/10/22 08:46:00;;;;;;;;;;;15.50;99.90;;;;;;8363617;28;20395;-82
2022/10/22 08:50:01;;;;;;;;;;;15.60;99.90;;;;;;8364797;28;19982;-82
2022/10/22 08:54:22;;;;;;;;;;;15.60;99.90;;;;;;8356773;28;19988;-82
2022/10/22 08:58:28;;;;;;;;;;;15.60;99.90;;;;;;8357535;28;20007;-82
2022/10/22 09:02:37;;;;;;;;;;;15.60;99.90;;;;;;8358205;28;19968;-81
2022/10/22 09:06:40;;;;;;;;;;;15.60;99.90;;;;;;8357185;28;19971;-81
2022/10/22 09:10:47;;;;;;;;;;;15.70;99.90;;;;;;8362984;28;19931;-81
2022/10/22 09:14:48;;;;;;;;;;;15.70;99.90;;;;;;8363100;28;20024;-80
2022/10/22 09:18:50;;;;;;;;;;;15.70;99.90;;;;;;8362846;28;20473;-81
2022/10/22 09:23:07;;;;;;;;;;;15.80;99.90;;;;;;8363865;28;19925;-82
2022/10/22 09:27:10;;;;;;;;;;;15.90;99.90;;;;;;8362403;28;19968;-82
2022/10/22 09:31:12;;;;;;;;;;;16.10;99.90;;;;;;8396243;28;19924;-82
2022/10/22 09:35:20;;;;;;;;;;;16.20;99.90;;;;;;8379210;28;20007;-82
2022/10/22 09:39:24;;;;;;;;;;;16.40;99.90;;;;;;8395503;28;19924;-82
2022/10/22 09:43:25;;;;;;;;;;;16.60;99.90;;;;;;8376946;28;20462;-82
2022/10/22 09:47:30;;;;;;;;;;;16.80;99.90;;;;;;8394422;28;19928;-82
2022/10/22 09:51:56;;;;;;;;;;;16.70;99.90;;;;;;8394285;28;19924;-83
2022/10/22 09:55:59;;;;;;;;;;;16.70;99.90;;;;;;8391329;28;19924;-82
2022/10/22 10:00:06;;;;;;;;;;;16.70;99.90;;;;;;8377595;28;20026;-82
2022/10/22 10:04:09;;;;;;;;;;;16.70;99.90;;;;;;8377525;28;19964;-82
2022/10/22 10:08:12;;;;;;;;;;;16.80;99.90;;;;;;8395656;28;19939;-80
2022/10/22 10:12:29;;;;;;;;;;;17.30;99.90;;;;;;8395634;28;19972;-81
2022/10/22 10:16:39;;;;;;;;;;;17.60;99.90;;;;;;8378017;28;19925;-81
2022/10/22 10:20:52;;;;;;;;;;;17.80;99.90;;;;;;8395338;28;20015;-82
2022/10/22 10:25:18;;;;;;;;;;;17.90;99.90;;;;;;8376598;28;20038;-82
2022/10/22 10:29:33;;;;;;;;;;;18.00;99.90;;;;;;8400256;28;20007;-83
2022/10/22 10:33:41;;;;;;;;;;;18.10;99.90;;;;;;8400359;28;19928;-83
2022/10/22 10:37:48;;;;;;;;;;;18.30;99.90;;;;;;8400608;28;19930;-83
2022/10/22 10:42:01;;;;;;;;;;;18.40;99.90;;;;;;8410710;28;19967;-83
2022/10/22 10:46:12;;;;;;;;;;;18.30;99.90;;;;;;8395085;28;19972;-83
2022/10/22 10:50:20;;;;;;;;;;;18.20;99.90;;;;;;8396092;28;20399;-83
2022/10/22 10:54:31;;;;;;;;;;;18.20;99.90;;;;;;8372054;28;19925;-83
2022/10/22 10:58:48;;;;;;;;;;;18.10;99.90;;;;;;8395602;28;20242;-83
2022/10/22 11:02:50;;;;;;;;;;;18.30;99.90;;;;;;8371901;28;20388;-83
2022/10/22 11:06:55;;;;;;;;;;;18.60;99.90;;;;;;8387455;28;19924;-83
2022/10/22 11:11:13;;;;;;;;;;;18.60;99.90;;;;;;8371434;28;19944;-83
2022/10/22 11:21:01;;;;;;;;;;;18.90;99.90;;;;;;8376993;28;19963;-83
2022/10/22 11:25:11;;;;;;;;;;;18.80;99.90;;;;;;8379766;28;19931;-82
2022/10/22 11:29:16;;;;;;;;;;;18.60;99.90;;;;;;8374607;28;20372;-82
2022/10/22 11:33:20;;;;;;;;;;;18.50;99.90;;;;;;8382370;28;19924;-82
2022/10/22 11:37:23;;;;;;;;;;;18.40;99.90;;;;;;8364934;28;19928;-82
2022/10/22 11:41:26;;;;;;;;;;;18.70;99.90;;;;;;8364827;28;19928;-82
2022/10/22 11:45:30;;;;;;;;;;;19.00;99.90;;;;;;8365985;28;20008;-83
2022/10/22 11:49:53;;;;;;;;;;;18.90;99.90;;;;;;8361337;28;20012;-83
2022/10/22 11:53:56;;;;;;;;;;;18.50;99.90;;;;;;8373046;28;20384;-82
2022/10/22 11:57:59;;;;;;;;;;;18.40;99.90;;;;;;8381670;28;20341;-82
2022/10/22 12:02:00;;;;;;;;;;;18.30;99.90;;;;;;8363179;28;19924;-82
2022/10/22 12:06:11;;;;;;;;;;;18.20;99.90;;;;;;8395359;28;20011;-82
2022/10/22 12:10:20;;;;;;;;;;;18.20;99.90;;;;;;8396076;28;19931;-82
2022/10/22 12:14:26;;;;;;;;;;;18.30;99.90;;;;;;8379268;28;19976;-83
2022/10/22 12:18:40;;;;;;;;;;;18.40;99.90;;;;;;8372608;28;20019;-83
2022/10/22 12:22:42;;;;;;;;;;;18.40;99.90;;;;;;8366621;28;19928;-82
2022/10/22 12:26:45;;;;;;;;;;;18.40;99.90;;;;;;8373012;28;20369;-82
2022/10/22 12:30:47;;;;;;;;;;;18.50;99.90;;;;;;8374878;28;20399;-83
2022/10/22 12:34:50;;;;;;;;;;;18.60;99.90;;;;;;8380921;28;20335;-82
2022/10/22 12:38:52;;;;;;;;;;;18.80;99.90;;;;;;8363013;28;20011;-82
2022/10/22 12:42:57;;;;;;;;;;;19.00;99.90;;;;;;8377993;28;19924;-82
2022/10/22 12:46:59;;;;;;;;;;;19.00;99.90;;;;;;8367143;28;19925;-82
2022/10/22 12:51:02;;;;;;;;;;;19.20;99.90;;;;;;8380434;28;20378;-81
2022/10/22 12:55:07;;;;;;;;;;;19.20;99.90;;;;;;8369955;28;19931;-80
2022/10/22 12:59:17;;;;;;;;;;;19.20;99.90;;;;;;8380733;28;20018;-81
2022/10/22 13:03:26;;;;;;;;;;;19.10;99.90;;;;;;8374492;28;19932;-80
2022/10/22 13:07:36;;;;;;;;;;;18.90;99.90;;;;;;8370101;28;19931;-80
2022/10/22 13:11:40;;;;;;;;;;;18.70;99.90;;;;;;8363680;28;20005;-80
2022/10/22 13:15:41;;;;;;;;;;;18.90;99.90;;;;;;8354134;28;20023;-81
2022/10/22 13:19:49;;;;;;;;;;;19.10;99.90;;;;;;8376948;28;19934;-80
2022/10/22 13:23:58;;;;;;;;;;;19.30;99.90;;;;;;8371940;28;19935;-80
2022/10/22 13:28:01;;;;;;;;;;;19.50;99.90;;;;;;8375304;28;20016;-81
2022/10/22 13:32:03;;;;;;;;;;;19.40;99.90;;;;;;8373068;28;19925;-80
2022/10/22 13:36:05;;;;;;;;;;;19.30;99.90;;;;;;8377812;28;19925;-80
2022/10/22 13:40:10;;;;;;;;;;;19.10;99.90;;;;;;8358645;28;20396;-80
2022/10/22 13:44:11;;;;;;;;;;;18.90;99.90;;;;;;8381152;28;19983;-80
2022/10/22 13:48:20;;;;;;;;;;;18.70;99.90;;;;;;8390514;28;20361;-80
2022/10/22 13:52:26;;;;;;;;;;;18.60;99.90;;;;;;8395130;28;19969;-81
2022/10/22 13:56:28;;;;;;;;;;;18.60;99.90;;;;;;8375896;28;19992;-80
2022/10/22 14:00:30;;;;;;;;;;;18.50;99.90;;;;;;8371641;28;20019;-81
2022/10/22 14:04:32;;;;;;;;;;;18.60;99.90;;;;;;8366690;28;19935;-80
2022/10/22 14:08:34;;;;;;;;;;;18.80;99.90;;;;;;8371364;28;19925;-81
2022/10/22 14:12:35;;;;;;;;;;;19.20;99.90;;;;;;8368928;28;19939;-81
2022/10/22 14:16:37;;;;;;;;;;;19.90;99.90;;;;;;8388469;28;19934;-81
2022/10/22 14:20:40;;;;;;;;;;;20.50;99.90;;;;;;8373862;28;19931;-81
2022/10/22 14:29:45;;;;;;;;;;;20.00;99.90;;;;;;8372468;28;20015;-80
2022/10/22 14:33:50;;;;;;;;;;;19.40;99.90;;;;;;8384626;28;19925;-81
2022/10/22 14:37:52;;;;;;;;;;;19.20;99.90;;;;;;8380280;28;19928;-80
2022/10/22 14:41:54;;;;;;;;;;;18.90;99.90;;;;;;8373656;28;19924;-80
2022/10/22 14:45:56;;;;;;;;;;;18.70;99.90;;;;;;8370455;28;20002;-80
2022/10/22 14:49:58;;;;;;;;;;;18.60;99.90;;;;;;8364361;28;19928;-80
2022/10/22 14:54:06;;;;;;;;;;;18.60;99.90;;;;;;8371134;28;19985;-80
2022/10/22 14:58:09;;;;;;;;;;;18.70;99.90;;;;;;8365991;28;20657;-81
2022/10/22 15:02:12;;;;;;;;;;;18.80;99.90;;;;;;8375747;28;19947;-81
2022/10/22 15:06:13;;;;;;;;;;;19.10;99.90;;;;;;8360309;28;19987;-80
2022/10/22 15:10:15;;;;;;;;;;;19.60;99.90;;;;;;8378961;28;20425;-81
2022/10/22 15:14:17;;;;;;;;;;;19.80;99.90;;;;;;8369313;28;20012;-81
2022/10/22 15:18:19;;;;;;;;;;;19.90;99.90;;;;;;8382649;28;20366;-80
2022/10/22 15:22:20;;;;;;;;;;;19.90;99.90;;;;;;8367742;28;19925;-80
2022/10/22 15:26:22;;;;;;;;;;;19.90;99.90;;;;;;8380250;28;19931;-81
2022/10/22 15:30:24;;;;;;;;;;;19.90;99.90;;;;;;8385761;28;20034;-81
2022/10/22 15:34:30;;;;;;;;;;;19.80;99.90;;;;;;8348107;28;19994;-80
2022/10/22 15:38:31;;;;;;;;;;;19.80;99.90;;;;;;8347952;28;20016;-80
2022/10/22 15:42:33;;;;;;;;;;;19.60;99.90;;;;;;8354763;28;19924;-80
2022/10/22 15:46:35;;;;;;;;;;;19.40;99.90;;;;;;8357585;28;20368;-80
2022/10/22 15:50:37;;;;;;;;;;;19.20;99.90;;;;;;8368364;28;20027;-80
2022/10/22 16:04:45;;;;;;;;;;;18.60;99.90;;;;;;8367557;28;19920;-81
2022/10/22 16:08:46;;;;;;;;;;;18.40;99.90;;;;;;8367965;28;20031;-80
2022/10/22 16:12:50;;;;;;;;;;;18.30;99.90;;;;;;8367675;28;19925;-80
2022/10/22 16:16:54;;;;;;;;;;;18.20;99.90;;;;;;8368088;28;19925;-80
2022/10/22 16:20:56;;;;;;;;;;;18.00;99.90;;;;;;8365899;28;19924;-80
2022/10/22 16:24:57;;;;;;;;;;;17.90;99.90;;;;;;8366764;28;20011;-81
2022/10/22 16:28:59;;;;;;;;;;;17.80;99.90;;;;;;8393122;28;19979;-80
2022/10/22 16:33:01;;;;;;;;;;;17.60;99.90;;;;;;8415181;28;19947;-81
2022/10/22 16:37:08;;;;;;;;;;;17.40;99.90;;;;;;8382523;28;19924;-80
2022/10/22 16:41:13;;;;;;;;;;;17.30;99.90;;;;;;8382281;28;19931;-81
2022/10/22 16:45:15;;;;;;;;;;;17.10;99.90;;;;;;8382042;28;20015;-80
2022/10/22 16:49:17;;;;;;;;;;;17.00;99.90;;;;;;8399454;28;19934;-80
2022/10/22 17:08:29;;;;;;;;;;;16.50;99.90;;;;;;8365584;28;20387;-80
2022/10/22 17:12:34;;;;;;;;;;;16.40;99.90;;;;;;8363335;28;19924;-80
2022/10/22 17:16:35;;;;;;;;;;;16.30;99.90;;;;;;8377797;28;19970;-80
2022/10/22 17:20:42;;;;;;;;;;;16.20;99.90;;;;;;8401440;28;20015;-80
2022/10/22 17:24:43;;;;;;;;;;;16.10;99.90;;;;;;8393342;28;20366;-80
2022/10/22 17:28:45;;;;;;;;;;;16.10;99.90;;;;;;8397969;28;20443;-80
2022/10/22 17:32:46;;;;;;;;;;;16.00;99.90;;;;;;8380475;28;20019;-81
2022/10/22 17:36:48;;;;;;;;;;;15.90;99.90;;;;;;8398358;28;20014;-80
2022/10/22 17:40:50;;;;;;;;;;;15.90;99.90;;;;;;8397758;28;20482;-80
2022/10/22 17:44:52;;;;;;;;;;;15.80;99.90;;;;;;8397896;28;19924;-80
2022/10/22 17:48:56;;;;;;;;;;;15.80;99.90;;;;;;8380427;28;19930;-80
2022/10/22 17:52:57;;;;;;;;;;;15.70;99.90;;;;;;8380150;28;20018;-80
2022/10/22 17:56:59;;;;;;;;;;;15.60;99.90;;;;;;8386454;28;20007;-80
2022/10/22 18:01:01;;;;;;;;;;;15.50;99.90;;;;;;8375162;28;19924;-80
2022/10/22 18:05:02;;;;;;;;;;;15.40;99.90;;;;;;8397068;28;19925;-80
2022/10/22 18:09:05;;;;;;;;;;;15.40;99.90;;;;;;8379324;28;19947;-80
2022/10/22 18:13:07;;;;;;;;;;;15.30;99.90;;;;;;8379998;28;19932;-80
2022/10/22 18:17:08;;;;;;;;;;;15.30;99.90;;;;;;8397710;28;19931;-80
2022/10/22 18:21:10;;;;;;;;;;;15.20;99.90;;;;;;8397010;28;19936;-80
2022/10/22 18:25:12;;;;;;;;;;;15.20;99.90;;;;;;8397213;28;19925;-80
2022/10/22 18:29:15;;;;;;;;;;;15.20;99.90;;;;;;8370037;28;20356;-80
2022/10/22 18:33:17;;;;;;;;;;;15.10;99.90;;;;;;8373214;28;19987;-80
2022/10/22 18:37:19;;;;;;;;;;;15.10;99.90;;;;;;8383298;28;19966;-80
2022/10/22 18:41:20;;;;;;;;;;;15.10;99.90;;;;;;8393660;28;19971;-80
2022/10/22 18:45:22;;;;;;;;;;;15.10;99.90;;;;;;8392817;28;19931;-80
2022/10/22 18:49:24;;;;;;;;;;;15.10;99.90;;;;;;8395959;28;19936;-80
2022/10/22 18:53:25;;;;;;;;;;;15.20;99.90;;;;;;8394026;28;20012;-80
2022/10/22 18:57:27;;;;;;;;;;;15.10;99.90;;;;;;8397440;28;20142;-80
2022/10/22 19:01:29;;;;;;;;;;;15.10;99.90;;;;;;8388492;28;19931;-80
2022/10/22 19:05:30;;;;;;;;;;;15.00;99.90;;;;;;8367957;28;19932;-80
2022/10/22 19:19:33;;;;;;;;;;;15.00;99.90;;;;;;8386244;28;20395;-80
2022/10/22 19:23:35;;;;;;;;;;;15.00;99.90;;;;;;8386886;28;19971;-81
2022/10/22 19:27:38;;;;;;;;;;;15.10;99.90;;;;;;8377928;28;19979;-81
2022/10/22 19:31:41;;;;;;;;;;;15.00;99.90;;;;;;8379741;28;20334;-80
2022/10/22 19:35:42;;;;;;;;;;;15.10;99.90;;;;;;8356732;28;19971;-80
2022/10/22 19:39:44;;;;;;;;;;;15.00;99.90;;;;;;8363075;28;19929;-80
2022/10/22 19:43:47;;;;;;;;;;;15.00;99.90;;;;;;8368425;28;19948;-80
2022/10/22 19:47:49;;;;;;;;;;;15.00;99.90;;;;;;8372811;28;19925;-80
2022/10/22 19:51:51;;;;;;;;;;;15.00;99.90;;;;;;8390500;28;20027;-80
2022/10/22 19:55:52;;;;;;;;;;;15.00;99.90;;;;;;8367017;28;19931;-80
2022/10/22 19:59:54;;;;;;;;;;;15.00;99.90;;;;;;8369986;28;19936;-80
2022/10/22 20:03:56;;;;;;;;;;;15.00;99.90;;;;;;8377149;28;20015;-80
2022/10/22 20:07:57;;;;;;;;;;;15.00;99.90;;;;;;8374895;28;19992;-80
2022/10/22 20:11:59;;;;;;;;;;;15.00;99.90;;;;;;8375571;28;19933;-80
2022/10/22 20:16:01;;;;;;;;;;;14.90;99.90;;;;;;8387509;28;19928;-80
2022/10/22 20:20:03;;;;;;;;;;;14.90;99.90;;;;;;8386655;28;20407;-80
2022/10/22 20:24:04;;;;;;;;;;;14.90;99.90;;;;;;8369436;28;20365;-80
2022/10/22 20:28:06;;;;;;;;;;;14.80;99.90;;;;;;8368790;28;19924;-81
2022/10/22 20:32:08;;;;;;;;;;;14.80;99.90;;;;;;8391170;28;21962;-80
2022/10/22 20:36:21;;;;;;;;;;;14.80;99.90;;;;;;8392606;28;19963;-80
2022/10/22 20:40:24;;;;;;;;;;;14.70;99.90;;;;;;8364220;28;20110;-81
2022/10/22 20:44:26;;;;;;;;;;;14.70;99.90;;;;;;8374627;28;19924;-80
2022/10/22 20:48:29;;;;;;;;;;;14.70;99.90;;;;;;8377483;28;19928;-81
2022/10/22 20:52:31;;;;;;;;;;;14.60;99.90;;;;;;8389973;28;19924;-80
2022/10/22 20:56:38;;;;;;;;;;;14.60;99.90;;;;;;8389924;28;19957;-80
2022/10/22 21:00:39;;;;;;;;;;;14.60;99.90;;;;;;8363712;28;20022;-81
2022/10/22 21:04:41;;;;;;;;;;;14.50;99.90;;;;;;8379635;28;19931;-80
2022/10/22 21:08:45;;;;;;;;;;;14.50;99.90;;;;;;8397424;28;19939;-80
2022/10/22 21:12:47;;;;;;;;;;;14.60;99.90;;;;;;8397130;28;19932;-80
2022/10/22 21:16:49;;;;;;;;;;;14.60;99.90;;;;;;8379580;28;19997;-80
2022/10/22 21:20:51;;;;;;;;;;;14.50;99.90;;;;;;8396783;28;19934;-80
2022/10/22 21:24:52;;;;;;;;;;;14.50;99.90;;;;;;8396509;28;19925;-80
2022/10/22 21:28:54;;;;;;;;;;;14.50;99.90;;;;;;8397300;28;20031;-81
2022/10/22 21:32:56;;;;;;;;;;;14.60;99.90;;;;;;8397127;28;20015;-80
2022/10/22 21:36:58;;;;;;;;;;;14.60;99.90;;;;;;8397126;28;20019;-80
2022/10/22 21:41:04;;;;;;;;;;;14.50;99.90;;;;;;8379156;28;19931;-81
2022/10/22 21:45:06;;;;;;;;;;;14.50;99.90;;;;;;8397499;28;19990;-81
2022/10/22 21:49:13;;;;;;;;;;;14.50;99.90;;;;;;8396897;28;20344;-80
2022/10/22 21:53:14;;;;;;;;;;;14.50;99.90;;;;;;8396052;28;19925;-80
2022/10/22 21:57:16;;;;;;;;;;;14.50;99.90;;;;;;8396727;28;20019;-80
2022/10/22 22:01:18;;;;;;;;;;;14.50;99.90;;;;;;8396810;28;20019;-80
2022/10/22 22:05:20;;;;;;;;;;;14.40;99.90;;;;;;8396916;28;19924;-80
2022/10/22 22:09:22;;;;;;;;;;;14.40;99.90;;;;;;8378975;28;20355;-80
2022/10/22 22:13:23;;;;;;;;;;;14.40;99.90;;;;;;8396246;28;20386;-80
2022/10/22 22:17:25;;;;;;;;;;;14.40;99.90;;;;;;8397191;28;19972;-80
2022/10/22 22:21:27;;;;;;;;;;;14.40;99.90;;;;;;8397340;28;20023;-80
2022/10/22 22:25:29;;;;;;;;;;;14.40;99.90;;;;;;8401607;28;19932;-81
2022/10/22 22:29:30;;;;;;;;;;;14.30;99.90;;;;;;8385485;28;19925;-81
2022/10/22 22:33:32;;;;;;;;;;;14.30;99.90;;;;;;8402873;28;20257;-80
2022/10/22 22:37:33;;;;;;;;;;;14.30;99.90;;;;;;8402960;28;19931;-81
2022/10/22 22:41:35;;;;;;;;;;;14.30;99.90;;;;;;8402158;28;20467;-80
2022/10/22 22:45:39;;;;;;;;;;;14.30;99.90;;;;;;8402530;28;19959;-81
2022/10/22 22:49:41;;;;;;;;;;;14.30;99.90;;;;;;8402441;28;19928;-80
2022/10/22 22:53:43;;;;;;;;;;;14.30;99.90;;;;;;8395394;28;20291;-80
2022/10/22 22:57:44;;;;;;;;;;;14.30;99.90;;;;;;8402581;28;19925;-80
2022/10/22 23:01:47;;;;;;;;;;;14.30;99.90;;;;;;8384129;28;20002;-81
2022/10/22 23:05:48;;;;;;;;;;;14.30;99.90;;;;;;8401238;28;19932;-80
2022/10/22 23:19:56;;;;;;;;;;;14.20;99.90;;;;;;8395045;28;19920;-82
2022/10/22 23:23:59;;;;;;;;;;;14.20;99.90;;;;;;8400756;28;20438;-82
2022/10/22 23:28:00;;;;;;;;;;;14.20;99.90;;;;;;8400479;28;20062;-82
2022/10/22 23:32:03;;;;;;;;;;;14.20;99.90;;;;;;8401081;28;20016;-82
2022/10/22 23:36:05;;;;;;;;;;;14.20;99.90;;;;;;8382813;28;19925;-82
2022/10/22 23:40:07;;;;;;;;;;;14.20;99.90;;;;;;8400356;28;20026;-82
2022/10/22 23:44:09;;;;;;;;;;;14.10;99.90;;;;;;8383070;28;19971;-82
2022/10/22 23:48:11;;;;;;;;;;;14.10;99.90;;;;;;8383220;28;19930;-83
2022/10/22 23:52:12;;;;;;;;;;;14.10;99.90;;;;;;8400463;28;19997;-82
2022/10/22 23:56:15;;;;;;;;;;;14.00;99.90;;;;;;8401110;28;20011;-82
